KBRD/BRD METAR and TAF weather

Enter ICAO airport designator
Station Type Date Time Source
KBRD METAR 2022/11/30 15:53 UTC NOAA

KBRD 301553Z AUTO 29017G31KT 10SM BKN024 M10/M17 A2994 RMK AO2 PK WND 29035/1508 SLP162 T11001167


Station Type Date Time Source
KBRD Decoded METAR 2022/11/30 15:53 UTC NOAA

BRAINERD-CROW WING CO AIRPORT , MN, United States (KBRD) 46-24N 94-08W 372M
Nov 30, 2022 - 10:53 AM EST / 2022.11.30 1553 UTC
Wind: from the WNW (290 degrees) at 20 MPH (17 KT) gusting to 36 MPH (31 KT):0
Visibility: 10 mile(s):0
Sky conditions: mostly cloudy
Temperature: 14.0 F (-10.0 C)
Windchill: -4 F (-20 C):1
Dew Point: 1.9 F (-16.7 C)
Relative Humidity: 57%
Pressure (altimeter): 29.94 in. Hg (1013 hPa)
ob: KBRD 301553Z AUTO 29017G31KT 10SM BKN024 M10/M17 A2994 RMK AO2 PK WND 29035/1508 SLP162 T11001167
cycle: 16

Station Type Date Time Source
KBRD TAF 2022/11/30 12:42 UTC NOAA

TAF KBRD 301139Z 3012/0112 29018G30KT P6SM OVC025
FM301600 30016G29KT P6SM VCSH BKN035
FM302100 29015G22KT P6SM OVC035
FM010300 30006KT P6SM OVC070

Example: see airport list